sensor_id;sensor_type;location;lat;lon;timestamp;P1;durP1;ratioP1;P2;durP2;ratioP2
7517;SDS011;3800;48.922;9.444;2023-07-28T00:02:14;3.60;;;3.30;;
7517;SDS011;3800;48.922;9.444;2023-07-28T00:04:42;8.53;;;3.63;;
7517;SDS011;3800;48.922;9.444;2023-07-28T00:07:11;4.80;;;3.77;;
7517;SDS011;3800;48.922;9.444;2023-07-28T00:09:39;3.80;;;3.50;;
7517;SDS011;3800;48.922;9.444;2023-07-28T00:12:08;4.37;;;3.70;;
7517;SDS011;3800;48.922;9.444;2023-07-28T00:14:36;5.53;;;3.47;;
7517;SDS011;3800;48.922;9.444;2023-07-28T00:17:05;6.67;;;4.07;;
7517;SDS011;3800;48.922;9.444;2023-07-28T00:19:33;4.00;;;3.57;;
7517;SDS011;3800;48.922;9.444;2023-07-28T00:22:01;4.37;;;3.97;;
7517;SDS011;3800;48.922;9.444;2023-07-28T00:24:30;6.43;;;4.13;;
7517;SDS011;3800;48.922;9.444;2023-07-28T00:26:59;5.03;;;4.53;;
7517;SDS011;3800;48.922;9.444;2023-07-28T00:29:27;5.30;;;3.83;;
7517;SDS011;3800;48.922;9.444;2023-07-28T00:31:55;3.87;;;3.53;;
7517;SDS011;3800;48.922;9.444;2023-07-28T00:34:24;4.90;;;4.07;;
7517;SDS011;3800;48.922;9.444;2023-07-28T00:36:52;4.97;;;3.77;;
7517;SDS011;3800;48.922;9.444;2023-07-28T00:39:21;4.53;;;4.13;;
7517;SDS011;3800;48.922;9.444;2023-07-28T00:41:50;4.73;;;3.90;;
7517;SDS011;3800;48.922;9.444;2023-07-28T00:44:18;4.73;;;4.33;;
7517;SDS011;3800;48.922;9.444;2023-07-28T00:46:46;4.73;;;4.03;;
7517;SDS011;3800;48.922;9.444;2023-07-28T00:49:15;7.03;;;4.30;;
7517;SDS011;3800;48.922;9.444;2023-07-28T00:51:44;4.90;;;3.77;;
7517;SDS011;3800;48.922;9.444;2023-07-28T00:54:12;4.97;;;3.77;;
7517;SDS011;3800;48.922;9.444;2023-07-28T00:56:40;4.27;;;3.87;;
7517;SDS011;3800;48.922;9.444;2023-07-28T00:59:09;4.17;;;3.80;;
7517;SDS011;3800;48.922;9.444;2023-07-28T01:01:37;4.77;;;4.03;;
7517;SDS011;3800;48.922;9.444;2023-07-28T01:04:06;4.50;;;4.10;;
7517;SDS011;3800;48.922;9.444;2023-07-28T01:06:41;4.63;;;4.23;;
7517;SDS011;3800;48.922;9.444;2023-07-28T01:09:22;5.20;;;4.07;;
7517;SDS011;3800;48.922;9.444;2023-07-28T01:11:55;5.00;;;3.87;;
7517;SDS011;3800;48.922;9.444;2023-07-28T01:14:24;5.00;;;4.60;;
7517;SDS011;3800;48.922;9.444;2023-07-28T01:16:52;5.50;;;5.00;;
7517;SDS011;3800;48.922;9.444;2023-07-28T01:19:20;5.47;;;4.90;;
7517;SDS011;3800;48.922;9.444;2023-07-28T01:21:54;6.87;;;4.60;;
7517;SDS011;3800;48.922;9.444;2023-07-28T01:24:21;5.20;;;4.70;;
7517;SDS011;3800;48.922;9.444;2023-07-28T01:26:49;6.67;;;3.90;;
7517;SDS011;3800;48.922;9.444;2023-07-28T01:29:17;4.60;;;4.10;;
7517;SDS011;3800;48.922;9.444;2023-07-28T01:31:47;6.30;;;4.30;;
7517;SDS011;3800;48.922;9.444;2023-07-28T01:34:15;5.33;;;4.67;;
7517;SDS011;3800;48.922;9.444;2023-07-28T01:36:43;5.53;;;4.93;;
7517;SDS011;3800;48.922;9.444;2023-07-28T01:39:12;5.23;;;4.63;;
7517;SDS011;3800;48.922;9.444;2023-07-28T01:41:40;5.23;;;4.73;;
7517;SDS011;3800;48.922;9.444;2023-07-28T01:44:09;5.40;;;4.90;;
7517;SDS011;3800;48.922;9.444;2023-07-28T01:46:38;6.30;;;5.00;;
7517;SDS011;3800;48.922;9.444;2023-07-28T01:49:06;6.17;;;5.10;;
7517;SDS011;3800;48.922;9.444;2023-07-28T01:51:34;5.33;;;4.70;;
7517;SDS011;3800;48.922;9.444;2023-07-28T01:54:02;4.80;;;4.40;;
7517;SDS011;3800;48.922;9.444;2023-07-28T01:56:31;5.57;;;4.73;;
7517;SDS011;3800;48.922;9.444;2023-07-28T01:59:00;6.17;;;4.30;;
7517;SDS011;3800;48.922;9.444;2023-07-28T02:01:28;5.00;;;4.50;;
7517;SDS011;3800;48.922;9.444;2023-07-28T02:03:57;4.57;;;4.17;;
7517;SDS011;3800;48.922;9.444;2023-07-28T02:06:26;5.67;;;4.20;;
7517;SDS011;3800;48.922;9.444;2023-07-28T02:08:54;4.63;;;4.23;;
7517;SDS011;3800;48.922;9.444;2023-07-28T02:11:22;5.40;;;4.33;;
7517;SDS011;3800;48.922;9.444;2023-07-28T02:13:50;5.53;;;4.60;;
7517;SDS011;3800;48.922;9.444;2023-07-28T02:16:19;6.73;;;4.70;;
7517;SDS011;3800;48.922;9.444;2023-07-28T02:18:47;5.47;;;4.20;;
7517;SDS011;3800;48.922;9.444;2023-07-28T02:21:15;4.63;;;4.00;;
7517;SDS011;3800;48.922;9.444;2023-07-28T02:23:43;6.70;;;4.40;;
7517;SDS011;3800;48.922;9.444;2023-07-28T02:26:12;4.33;;;3.93;;
7517;SDS011;3800;48.922;9.444;2023-07-28T02:28:40;5.57;;;4.23;;
7517;SDS011;3800;48.922;9.444;2023-07-28T02:31:08;5.03;;;4.40;;
7517;SDS011;3800;48.922;9.444;2023-07-28T02:33:37;11.00;;;4.47;;
7517;SDS011;3800;48.922;9.444;2023-07-28T02:36:05;4.57;;;3.87;;
7517;SDS011;3800;48.922;9.444;2023-07-28T02:38:33;4.73;;;4.27;;
7517;SDS011;3800;48.922;9.444;2023-07-28T02:41:01;4.80;;;4.17;;
7517;SDS011;3800;48.922;9.444;2023-07-28T02:43:30;5.33;;;4.30;;
7517;SDS011;3800;48.922;9.444;2023-07-28T02:45:59;5.40;;;4.13;;
7517;SDS011;3800;48.922;9.444;2023-07-28T02:48:26;5.97;;;4.40;;
7517;SDS011;3800;48.922;9.444;2023-07-28T02:50:55;4.93;;;4.53;;
7517;SDS011;3800;48.922;9.444;2023-07-28T02:53:24;4.33;;;3.93;;
7517;SDS011;3800;48.922;9.444;2023-07-28T02:55:52;5.10;;;4.27;;
7517;SDS011;3800;48.922;9.444;2023-07-28T02:58:20;5.27;;;4.30;;
7517;SDS011;3800;48.922;9.444;2023-07-28T03:00:51;4.63;;;4.20;;
7517;SDS011;3800;48.922;9.444;2023-07-28T03:03:17;4.63;;;4.23;;
7517;SDS011;3800;48.922;9.444;2023-07-28T03:05:46;6.70;;;4.53;;
7517;SDS011;3800;48.922;9.444;2023-07-28T03:08:15;4.70;;;4.17;;
7517;SDS011;3800;48.922;9.444;2023-07-28T03:10:43;4.17;;;3.53;;
7517;SDS011;3800;48.922;9.444;2023-07-28T03:13:11;4.53;;;4.13;;
7517;SDS011;3800;48.922;9.444;2023-07-28T03:15:40;4.27;;;3.87;;
7517;SDS011;3800;48.922;9.444;2023-07-28T03:18:09;4.33;;;3.93;;
7517;SDS011;3800;48.922;9.444;2023-07-28T03:20:37;4.80;;;4.20;;
7517;SDS011;3800;48.922;9.444;2023-07-28T03:23:06;4.97;;;4.40;;
7517;SDS011;3800;48.922;9.444;2023-07-28T03:25:34;4.63;;;4.23;;
7517;SDS011;3800;48.922;9.444;2023-07-28T03:28:02;4.43;;;4.03;;
7517;SDS011;3800;48.922;9.444;2023-07-28T03:30:31;4.70;;;4.30;;
7517;SDS011;3800;48.922;9.444;2023-07-28T03:33:00;4.67;;;4.20;;
7517;SDS011;3800;48.922;9.444;2023-07-28T03:35:28;4.67;;;4.27;;
7517;SDS011;3800;48.922;9.444;2023-07-28T03:37:56;5.30;;;4.80;;
7517;SDS011;3800;48.922;9.444;2023-07-28T03:40:25;5.50;;;5.00;;
7517;SDS011;3800;48.922;9.444;2023-07-28T03:42:53;6.10;;;5.50;;
7517;SDS011;3800;48.922;9.444;2023-07-28T03:45:22;5.50;;;5.00;;
7517;SDS011;3800;48.922;9.444;2023-07-28T03:47:50;5.50;;;4.87;;
7517;SDS011;3800;48.922;9.444;2023-07-28T03:50:18;6.73;;;4.73;;
7517;SDS011;3800;48.922;9.444;2023-07-28T03:52:47;5.67;;;5.07;;
7517;SDS011;3800;48.922;9.444;2023-07-28T03:55:15;6.13;;;4.80;;
7517;SDS011;3800;48.922;9.444;2023-07-28T03:57:43;5.30;;;4.80;;
7517;SDS011;3800;48.922;9.444;2023-07-28T04:00:12;7.77;;;5.40;;
7517;SDS011;3800;48.922;9.444;2023-07-28T04:02:40;5.30;;;4.80;;
7517;SDS011;3800;48.922;9.444;2023-07-28T04:05:08;5.57;;;4.73;;
7517;SDS011;3800;48.922;9.444;2023-07-28T04:07:37;5.47;;;4.97;;
7517;SDS011;3800;48.922;9.444;2023-07-28T04:10:05;8.27;;;4.77;;
7517;SDS011;3800;48.922;9.444;2023-07-28T04:12:34;5.17;;;4.63;;
7517;SDS011;3800;48.922;9.444;2023-07-28T04:15:04;6.60;;;4.47;;
7517;SDS011;3800;48.922;9.444;2023-07-28T04:17:34;5.77;;;4.40;;
7517;SDS011;3800;48.922;9.444;2023-07-28T04:20:02;5.40;;;4.20;;
7517;SDS011;3800;48.922;9.444;2023-07-28T04:22:31;5.67;;;4.20;;
7517;SDS011;3800;48.922;9.444;2023-07-28T04:25:00;6.80;;;3.93;;
7517;SDS011;3800;48.922;9.444;2023-07-28T04:27:28;6.17;;;4.37;;
7517;SDS011;3800;48.922;9.444;2023-07-28T04:29:57;4.70;;;4.30;;
7517;SDS011;3800;48.922;9.444;2023-07-28T04:32:25;5.33;;;4.13;;
7517;SDS011;3800;48.922;9.444;2023-07-28T04:34:53;6.50;;;4.20;;
7517;SDS011;3800;48.922;9.444;2023-07-28T04:37:22;4.93;;;4.40;;
7517;SDS011;3800;48.922;9.444;2023-07-28T04:39:50;5.07;;;3.90;;
7517;SDS011;3800;48.922;9.444;2023-07-28T04:42:19;5.40;;;4.20;;
7517;SDS011;3800;48.922;9.444;2023-07-28T04:44:47;4.60;;;4.20;;
7517;SDS011;3800;48.922;9.444;2023-07-28T04:47:16;4.07;;;3.77;;
7517;SDS011;3800;48.922;9.444;2023-07-28T04:49:44;4.53;;;4.13;;
7517;SDS011;3800;48.922;9.444;2023-07-28T04:52:12;4.40;;;4.00;;
7517;SDS011;3800;48.922;9.444;2023-07-28T04:54:40;5.00;;;3.83;;
7517;SDS011;3800;48.922;9.444;2023-07-28T04:57:09;4.53;;;4.00;;
7517;SDS011;3800;48.922;9.444;2023-07-28T04:59:38;4.30;;;3.97;;
7517;SDS011;3800;48.922;9.444;2023-07-28T05:02:06;4.73;;;4.17;;
7517;SDS011;3800;48.922;9.444;2023-07-28T05:04:34;5.03;;;4.00;;
7517;SDS011;3800;48.922;9.444;2023-07-28T05:07:03;7.20;;;4.30;;
7517;SDS011;3800;48.922;9.444;2023-07-28T05:09:31;5.43;;;4.23;;
7517;SDS011;3800;48.922;9.444;2023-07-28T05:12:00;5.23;;;4.33;;
7517;SDS011;3800;48.922;9.444;2023-07-28T05:14:28;4.77;;;4.27;;
7517;SDS011;3800;48.922;9.444;2023-07-28T05:16:57;4.80;;;4.27;;
7517;SDS011;3800;48.922;9.444;2023-07-28T05:19:25;5.13;;;4.13;;
7517;SDS011;3800;48.922;9.444;2023-07-28T05:21:53;5.77;;;4.60;;
7517;SDS011;3800;48.922;9.444;2023-07-28T05:24:22;6.30;;;4.60;;
7517;SDS011;3800;48.922;9.444;2023-07-28T05:26:50;4.90;;;4.40;;
7517;SDS011;3800;48.922;9.444;2023-07-28T05:29:18;5.83;;;4.70;;
7517;SDS011;3800;48.922;9.444;2023-07-28T05:31:47;4.97;;;4.57;;
7517;SDS011;3800;48.922;9.444;2023-07-28T05:34:16;5.10;;;4.60;;
7517;SDS011;3800;48.922;9.444;2023-07-28T05:36:44;7.40;;;4.83;;
7517;SDS011;3800;48.922;9.444;2023-07-28T05:39:13;6.23;;;4.77;;
7517;SDS011;3800;48.922;9.444;2023-07-28T05:41:41;6.33;;;4.77;;
7517;SDS011;3800;48.922;9.444;2023-07-28T05:44:10;6.30;;;5.00;;
7517;SDS011;3800;48.922;9.444;2023-07-28T05:46:39;6.07;;;4.70;;
7517;SDS011;3800;48.922;9.444;2023-07-28T05:49:07;5.77;;;4.77;;
7517;SDS011;3800;48.922;9.444;2023-07-28T05:51:35;6.17;;;5.10;;
7517;SDS011;3800;48.922;9.444;2023-07-28T05:54:03;5.57;;;5.07;;
7517;SDS011;3800;48.922;9.444;2023-07-28T05:56:32;6.67;;;5.40;;
7517;SDS011;3800;48.922;9.444;2023-07-28T05:59:01;8.17;;;5.23;;
7517;SDS011;3800;48.922;9.444;2023-07-28T06:01:29;6.67;;;5.30;;
7517;SDS011;3800;48.922;9.444;2023-07-28T06:03:57;5.97;;;5.33;;
7517;SDS011;3800;48.922;9.444;2023-07-28T06:06:26;5.50;;;5.00;;
7517;SDS011;3800;48.922;9.444;2023-07-28T06:08:54;7.97;;;5.47;;
7517;SDS011;3800;48.922;9.444;2023-07-28T06:11:23;6.20;;;5.30;;
7517;SDS011;3800;48.922;9.444;2023-07-28T06:13:51;5.87;;;5.13;;
7517;SDS011;3800;48.922;9.444;2023-07-28T06:16:20;7.73;;;6.70;;
7517;SDS011;3800;48.922;9.444;2023-07-28T06:18:48;7.67;;;6.00;;
7517;SDS011;3800;48.922;9.444;2023-07-28T06:21:17;6.40;;;5.37;;
7517;SDS011;3800;48.922;9.444;2023-07-28T06:23:46;6.83;;;6.13;;
7517;SDS011;3800;48.922;9.444;2023-07-28T06:26:14;6.07;;;5.20;;
7517;SDS011;3800;48.922;9.444;2023-07-28T06:28:42;6.77;;;5.37;;
7517;SDS011;3800;48.922;9.444;2023-07-28T06:31:11;6.80;;;5.87;;
7517;SDS011;3800;48.922;9.444;2023-07-28T06:33:39;9.73;;;6.40;;
7517;SDS011;3800;48.922;9.444;2023-07-28T06:36:08;7.40;;;6.13;;
7517;SDS011;3800;48.922;9.444;2023-07-28T06:38:36;6.13;;;5.43;;
7517;SDS011;3800;48.922;9.444;2023-07-28T06:41:05;6.87;;;5.47;;
7517;SDS011;3800;48.922;9.444;2023-07-28T06:43:34;6.97;;;5.73;;
7517;SDS011;3800;48.922;9.444;2023-07-28T06:46:02;5.70;;;5.17;;
7517;SDS011;3800;48.922;9.444;2023-07-28T06:48:30;6.23;;;5.63;;
7517;SDS011;3800;48.922;9.444;2023-07-28T06:50:59;10.93;;;5.30;;
7517;SDS011;3800;48.922;9.444;2023-07-28T06:53:28;6.10;;;5.30;;
7517;SDS011;3800;48.922;9.444;2023-07-28T06:55:56;7.57;;;5.73;;
7517;SDS011;3800;48.922;9.444;2023-07-28T06:58:24;5.80;;;5.30;;
7517;SDS011;3800;48.922;9.444;2023-07-28T07:00:53;7.63;;;6.00;;
7517;SDS011;3800;48.922;9.444;2023-07-28T07:03:21;9.60;;;5.23;;
7517;SDS011;3800;48.922;9.444;2023-07-28T07:05:51;6.07;;;5.47;;
7517;SDS011;3800;48.922;9.444;2023-07-28T07:08:19;6.07;;;5.47;;
7517;SDS011;3800;48.922;9.444;2023-07-28T07:10:48;6.80;;;6.17;;
7517;SDS011;3800;48.922;9.444;2023-07-28T07:13:17;5.67;;;5.07;;
7517;SDS011;3800;48.922;9.444;2023-07-28T07:15:45;9.73;;;6.07;;
7517;SDS011;3800;48.922;9.444;2023-07-28T07:18:14;8.57;;;6.30;;
7517;SDS011;3800;48.922;9.444;2023-07-28T07:20:42;6.50;;;5.40;;
7517;SDS011;3800;48.922;9.444;2023-07-28T07:23:10;6.30;;;5.60;;
7517;SDS011;3800;48.922;9.444;2023-07-28T07:25:39;8.20;;;6.60;;
7517;SDS011;3800;48.922;9.444;2023-07-28T07:28:07;6.70;;;5.90;;
7517;SDS011;3800;48.922;9.444;2023-07-28T07:30:35;9.60;;;6.40;;
7517;SDS011;3800;48.922;9.444;2023-07-28T07:33:03;7.23;;;5.97;;
7517;SDS011;3800;48.922;9.444;2023-07-28T07:35:35;6.00;;;5.30;;
7517;SDS011;3800;48.922;9.444;2023-07-28T07:38:01;5.90;;;5.40;;
7517;SDS011;3800;48.922;9.444;2023-07-28T07:40:29;5.97;;;5.20;;
7517;SDS011;3800;48.922;9.444;2023-07-28T07:42:57;5.70;;;5.20;;
7517;SDS011;3800;48.922;9.444;2023-07-28T07:45:25;8.80;;;5.80;;
7517;SDS011;3800;48.922;9.444;2023-07-28T07:47:54;6.90;;;5.67;;
7517;SDS011;3800;48.922;9.444;2023-07-28T07:50:23;6.53;;;5.47;;
7517;SDS011;3800;48.922;9.444;2023-07-28T07:52:51;7.00;;;5.73;;
7517;SDS011;3800;48.922;9.444;2023-07-28T07:55:19;6.30;;;5.20;;
7517;SDS011;3800;48.922;9.444;2023-07-28T07:57:48;6.37;;;5.77;;
7517;SDS011;3800;48.922;9.444;2023-07-28T08:00:18;5.67;;;5.17;;
7517;SDS011;3800;48.922;9.444;2023-07-28T08:02:47;6.60;;;5.30;;
7517;SDS011;3800;48.922;9.444;2023-07-28T08:05:16;5.13;;;4.63;;
7517;SDS011;3800;48.922;9.444;2023-07-28T08:07:44;7.50;;;5.07;;
7517;SDS011;3800;48.922;9.444;2023-07-28T08:10:12;5.03;;;4.40;;
7517;SDS011;3800;48.922;9.444;2023-07-28T08:12:41;5.83;;;4.27;;
7517;SDS011;3800;48.922;9.444;2023-07-28T08:15:09;5.00;;;4.50;;
7517;SDS011;3800;48.922;9.444;2023-07-28T08:17:37;4.80;;;4.10;;
7517;SDS011;3800;48.922;9.444;2023-07-28T08:20:06;4.43;;;4.03;;
7517;SDS011;3800;48.922;9.444;2023-07-28T08:22:35;4.97;;;4.30;;
7517;SDS011;3800;48.922;9.444;2023-07-28T08:25:04;4.47;;;3.73;;
7517;SDS011;3800;48.922;9.444;2023-07-28T08:27:33;4.33;;;3.93;;
7517;SDS011;3800;48.922;9.444;2023-07-28T08:30:02;5.10;;;3.77;;
7517;SDS011;3800;48.922;9.444;2023-07-28T08:32:30;5.67;;;3.87;;
7517;SDS011;3800;48.922;9.444;2023-07-28T08:34:58;4.37;;;3.50;;
7517;SDS011;3800;48.922;9.444;2023-07-28T08:37:27;4.50;;;4.10;;
7517;SDS011;3800;48.922;9.444;2023-07-28T08:39:55;4.60;;;3.80;;
7517;SDS011;3800;48.922;9.444;2023-07-28T08:42:24;4.40;;;3.60;;
7517;SDS011;3800;48.922;9.444;2023-07-28T08:44:52;3.60;;;3.30;;
7517;SDS011;3800;48.922;9.444;2023-07-28T08:47:20;3.73;;;3.43;;
7517;SDS011;3800;48.922;9.444;2023-07-28T08:49:49;3.83;;;3.53;;
7517;SDS011;3800;48.922;9.444;2023-07-28T08:52:17;4.23;;;3.50;;
7517;SDS011;3800;48.922;9.444;2023-07-28T08:54:47;3.53;;;3.23;;
7517;SDS011;3800;48.922;9.444;2023-07-28T08:57:15;3.93;;;3.50;;
7517;SDS011;3800;48.922;9.444;2023-07-28T08:59:43;4.00;;;3.60;;
7517;SDS011;3800;48.922;9.444;2023-07-28T09:02:12;3.53;;;3.23;;
7517;SDS011;3800;48.922;9.444;2023-07-28T09:04:43;4.20;;;3.20;;
7517;SDS011;3800;48.922;9.444;2023-07-28T09:07:11;4.37;;;3.20;;
7517;SDS011;3800;48.922;9.444;2023-07-28T09:09:39;3.43;;;3.10;;
7517;SDS011;3800;48.922;9.444;2023-07-28T09:12:08;4.63;;;2.80;;
7517;SDS011;3800;48.922;9.444;2023-07-28T09:14:37;4.97;;;3.10;;
7517;SDS011;3800;48.922;9.444;2023-07-28T09:17:06;3.77;;;3.10;;
7517;SDS011;3800;48.922;9.444;2023-07-28T09:19:34;3.70;;;3.30;;
7517;SDS011;3800;48.922;9.444;2023-07-28T09:22:03;3.53;;;3.07;;
7517;SDS011;3800;48.922;9.444;2023-07-28T09:24:31;4.53;;;3.47;;
7517;SDS011;3800;48.922;9.444;2023-07-28T09:26:59;3.50;;;3.20;;
7517;SDS011;3800;48.922;9.444;2023-07-28T09:29:27;2.97;;;2.77;;
7517;SDS011;3800;48.922;9.444;2023-07-28T09:32:02;3.90;;;3.00;;
7517;SDS011;3800;48.922;9.444;2023-07-28T09:34:30;7.37;;;3.30;;
7517;SDS011;3800;48.922;9.444;2023-07-28T09:36:59;5.20;;;2.90;;
7517;SDS011;3800;48.922;9.444;2023-07-28T09:39:27;4.17;;;2.70;;
7517;SDS011;3800;48.922;9.444;2023-07-28T09:41:55;4.20;;;2.73;;
7517;SDS011;3800;48.922;9.444;2023-07-28T09:44:24;3.30;;;2.60;;
7517;SDS011;3800;48.922;9.444;2023-07-28T09:46:53;4.93;;;2.93;;
7517;SDS011;3800;48.922;9.444;2023-07-28T09:49:33;2.43;;;2.23;;
7517;SDS011;3800;48.922;9.444;2023-07-28T09:52:03;2.70;;;2.00;;
7517;SDS011;3800;48.922;9.444;2023-07-28T09:54:33;5.63;;;2.17;;
7517;SDS011;3800;48.922;9.444;2023-07-28T09:56:59;2.63;;;2.10;;
7517;SDS011;3800;48.922;9.444;2023-07-28T09:59:30;2.83;;;2.00;;
7517;SDS011;3800;48.922;9.444;2023-07-28T10:01:58;2.17;;;1.87;;
7517;SDS011;3800;48.922;9.444;2023-07-28T10:04:26;2.83;;;2.10;;
7517;SDS011;3800;48.922;9.444;2023-07-28T10:06:54;3.50;;;1.87;;
7517;SDS011;3800;48.922;9.444;2023-07-28T10:09:24;2.50;;;2.30;;
7517;SDS011;3800;48.922;9.444;2023-07-28T10:11:52;2.17;;;1.87;;
7517;SDS011;3800;48.922;9.444;2023-07-28T10:14:26;2.93;;;2.27;;
7517;SDS011;3800;48.922;9.444;2023-07-28T10:17:04;4.37;;;2.13;;
7517;SDS011;3800;48.922;9.444;2023-07-28T10:19:34;4.07;;;2.67;;
7517;SDS011;3800;48.922;9.444;2023-07-28T10:22:06;2.83;;;2.40;;
7517;SDS011;3800;48.922;9.444;2023-07-28T10:30:03;3.77;;;2.40;;
7517;SDS011;3800;48.922;9.444;2023-07-28T10:32:39;3.13;;;2.47;;
7517;SDS011;3800;48.922;9.444;2023-07-28T10:35:08;2.83;;;2.30;;
7517;SDS011;3800;48.922;9.444;2023-07-28T10:37:53;2.43;;;2.13;;
7517;SDS011;3800;48.922;9.444;2023-07-28T10:43:00;2.33;;;2.13;;
7517;SDS011;3800;48.922;9.444;2023-07-28T10:45:30;3.73;;;2.40;;
7517;SDS011;3800;48.922;9.444;2023-07-28T10:47:56;2.50;;;2.10;;
7517;SDS011;3800;48.922;9.444;2023-07-28T10:50:26;2.20;;;2.00;;
7517;SDS011;3800;48.922;9.444;2023-07-28T10:52:54;2.07;;;1.87;;
7517;SDS011;3800;48.922;9.444;2023-07-28T10:55:24;2.63;;;1.83;;
7517;SDS011;3800;48.922;9.444;2023-07-28T10:57:52;1.87;;;1.77;;
7517;SDS011;3800;48.922;9.444;2023-07-28T11:00:21;2.23;;;2.00;;
7517;SDS011;3800;48.922;9.444;2023-07-28T11:02:49;3.40;;;1.90;;
7517;SDS011;3800;48.922;9.444;2023-07-28T11:05:19;2.00;;;1.80;;
7517;SDS011;3800;48.922;9.444;2023-07-28T11:07:49;2.37;;;1.90;;
7517;SDS011;3800;48.922;9.444;2023-07-28T11:10:18;2.40;;;2.10;;
7517;SDS011;3800;48.922;9.444;2023-07-28T11:12:46;2.10;;;1.80;;
7517;SDS011;3800;48.922;9.444;2023-07-28T11:15:15;3.10;;;2.00;;
7517;SDS011;3800;48.922;9.444;2023-07-28T11:17:44;2.97;;;2.03;;
7517;SDS011;3800;48.922;9.444;2023-07-28T11:20:17;3.30;;;1.90;;
7517;SDS011;3800;48.922;9.444;2023-07-28T11:22:52;2.30;;;2.10;;
7517;SDS011;3800;48.922;9.444;2023-07-28T11:25:20;2.00;;;1.63;;
7517;SDS011;3800;48.922;9.444;2023-07-28T11:27:48;3.00;;;1.90;;
7517;SDS011;3800;48.922;9.444;2023-07-28T11:30:17;1.90;;;1.80;;
7517;SDS011;3800;48.922;9.444;2023-07-28T11:32:46;4.33;;;1.80;;
7517;SDS011;3800;48.922;9.444;2023-07-28T11:35:14;2.20;;;1.80;;
7517;SDS011;3800;48.922;9.444;2023-07-28T11:37:42;1.50;;;1.40;;
7517;SDS011;3800;48.922;9.444;2023-07-28T11:40:10;1.63;;;1.53;;
7517;SDS011;3800;48.922;9.444;2023-07-28T11:42:41;1.90;;;1.70;;
7517;SDS011;3800;48.922;9.444;2023-07-28T11:45:08;1.80;;;1.70;;
7517;SDS011;3800;48.922;9.444;2023-07-28T11:47:37;1.87;;;1.60;;
7517;SDS011;3800;48.922;9.444;2023-07-28T11:50:05;2.43;;;1.53;;
7517;SDS011;3800;48.922;9.444;2023-07-28T11:52:34;2.00;;;1.80;;
7517;SDS011;3800;48.922;9.444;2023-07-28T11:55:04;1.67;;;1.57;;
7517;SDS011;3800;48.922;9.444;2023-07-28T11:57:32;2.03;;;1.53;;
7517;SDS011;3800;48.922;9.444;2023-07-28T12:00:03;2.07;;;1.70;;
7517;SDS011;3800;48.922;9.444;2023-07-28T12:02:31;1.83;;;1.50;;
7517;SDS011;3800;48.922;9.444;2023-07-28T12:04:59;2.83;;;1.87;;
7517;SDS011;3800;48.922;9.444;2023-07-28T12:07:28;3.70;;;1.87;;
7517;SDS011;3800;48.922;9.444;2023-07-28T12:09:56;1.63;;;1.50;;
7517;SDS011;3800;48.922;9.444;2023-07-28T12:12:27;1.70;;;1.60;;
7517;SDS011;3800;48.922;9.444;2023-07-28T12:14:55;1.97;;;1.47;;
7517;SDS011;3800;48.922;9.444;2023-07-28T12:17:24;3.47;;;1.30;;
7517;SDS011;3800;48.922;9.444;2023-07-28T12:19:57;1.50;;;1.40;;
7517;SDS011;3800;48.922;9.444;2023-07-28T12:22:27;2.10;;;1.30;;
7517;SDS011;3800;48.922;9.444;2023-07-28T12:24:55;2.07;;;1.57;;
7517;SDS011;3800;48.922;9.444;2023-07-28T12:27:23;4.10;;;1.80;;
7517;SDS011;3800;48.922;9.444;2023-07-28T12:29:52;1.70;;;1.60;;
7517;SDS011;3800;48.922;9.444;2023-07-28T12:32:21;1.70;;;1.50;;
7517;SDS011;3800;48.922;9.444;2023-07-28T12:34:49;1.90;;;1.60;;
7517;SDS011;3800;48.922;9.444;2023-07-28T12:37:17;2.13;;;1.70;;
7517;SDS011;3800;48.922;9.444;2023-07-28T12:39:46;4.40;;;1.80;;
7517;SDS011;3800;48.922;9.444;2023-07-28T12:42:14;1.67;;;1.57;;
7517;SDS011;3800;48.922;9.444;2023-07-28T12:44:42;2.10;;;1.57;;
7517;SDS011;3800;48.922;9.444;2023-07-28T12:47:10;2.17;;;1.70;;
7517;SDS011;3800;48.922;9.444;2023-07-28T12:49:38;1.63;;;1.53;;
7517;SDS011;3800;48.922;9.444;2023-07-28T12:52:07;1.97;;;1.77;;
7517;SDS011;3800;48.922;9.444;2023-07-28T12:54:35;1.97;;;1.70;;
7517;SDS011;3800;48.922;9.444;2023-07-28T12:57:03;1.90;;;1.80;;
7517;SDS011;3800;48.922;9.444;2023-07-28T12:59:33;2.00;;;1.80;;
7517;SDS011;3800;48.922;9.444;2023-07-28T13:02:01;2.10;;;1.67;;
7517;SDS011;3800;48.922;9.444;2023-07-28T13:04:30;2.33;;;1.87;;
7517;SDS011;3800;48.922;9.444;2023-07-28T13:06:58;2.77;;;1.80;;
7517;SDS011;3800;48.922;9.444;2023-07-28T13:09:26;3.70;;;2.00;;
7517;SDS011;3800;48.922;9.444;2023-07-28T13:11:54;2.30;;;2.07;;
7517;SDS011;3800;48.922;9.444;2023-07-28T13:14:23;2.43;;;2.00;;
7517;SDS011;3800;48.922;9.444;2023-07-28T13:16:52;2.40;;;2.13;;
7517;SDS011;3800;48.922;9.444;2023-07-28T13:19:20;2.30;;;2.10;;
7517;SDS011;3800;48.922;9.444;2023-07-28T13:21:48;2.30;;;2.10;;
7517;SDS011;3800;48.922;9.444;2023-07-28T13:24:17;3.40;;;2.23;;
7517;SDS011;3800;48.922;9.444;2023-07-28T13:26:46;3.87;;;2.10;;
7517;SDS011;3800;48.922;9.444;2023-07-28T13:29:14;2.80;;;2.40;;
7517;SDS011;3800;48.922;9.444;2023-07-28T13:31:42;3.07;;;2.10;;
7517;SDS011;3800;48.922;9.444;2023-07-28T13:34:11;3.50;;;2.73;;
7517;SDS011;3800;48.922;9.444;2023-07-28T13:36:39;3.23;;;2.47;;
7517;SDS011;3800;48.922;9.444;2023-07-28T13:39:08;6.00;;;2.70;;
7517;SDS011;3800;48.922;9.444;2023-07-28T13:41:36;2.90;;;2.60;;
7517;SDS011;3800;48.922;9.444;2023-07-28T13:44:04;2.87;;;2.67;;
7517;SDS011;3800;48.922;9.444;2023-07-28T13:46:33;2.70;;;2.50;;
7517;SDS011;3800;48.922;9.444;2023-07-28T13:49:02;3.60;;;2.90;;
7517;SDS011;3800;48.922;9.444;2023-07-28T13:51:29;3.23;;;2.50;;
7517;SDS011;3800;48.922;9.444;2023-07-28T13:53:57;4.10;;;2.43;;
7517;SDS011;3800;48.922;9.444;2023-07-28T13:56:26;2.83;;;2.60;;
7517;SDS011;3800;48.922;9.444;2023-07-28T13:58:55;3.93;;;2.80;;
7517;SDS011;3800;48.922;9.444;2023-07-28T14:01:23;3.97;;;2.87;;
7517;SDS011;3800;48.922;9.444;2023-07-28T14:03:51;4.47;;;2.70;;
7517;SDS011;3800;48.922;9.444;2023-07-28T14:06:19;3.10;;;2.80;;
7517;SDS011;3800;48.922;9.444;2023-07-28T14:08:48;4.07;;;2.80;;
7517;SDS011;3800;48.922;9.444;2023-07-28T14:11:17;5.10;;;2.73;;
7517;SDS011;3800;48.922;9.444;2023-07-28T14:13:45;4.37;;;3.13;;
7517;SDS011;3800;48.922;9.444;2023-07-28T14:16:14;3.73;;;3.30;;
7517;SDS011;3800;48.922;9.444;2023-07-28T14:18:42;7.03;;;3.53;;
7517;SDS011;3800;48.922;9.444;2023-07-28T14:21:11;4.67;;;3.20;;
7517;SDS011;3800;48.922;9.444;2023-07-28T14:23:40;4.80;;;3.00;;
7517;SDS011;3800;48.922;9.444;2023-07-28T14:26:08;6.90;;;3.30;;
7517;SDS011;3800;48.922;9.444;2023-07-28T14:28:36;4.93;;;3.53;;
7517;SDS011;3800;48.922;9.444;2023-07-28T14:31:05;4.70;;;2.80;;
7517;SDS011;3800;48.922;9.444;2023-07-28T14:33:33;8.47;;;3.40;;
7517;SDS011;3800;48.922;9.444;2023-07-28T14:36:02;3.97;;;3.40;;
7517;SDS011;3800;48.922;9.444;2023-07-28T14:38:31;6.77;;;3.20;;
7517;SDS011;3800;48.922;9.444;2023-07-28T14:40:59;5.13;;;3.73;;
7517;SDS011;3800;48.922;9.444;2023-07-28T14:43:27;7.70;;;3.63;;
7517;SDS011;3800;48.922;9.444;2023-07-28T14:45:56;6.50;;;3.30;;
7517;SDS011;3800;48.922;9.444;2023-07-28T14:48:24;4.10;;;3.53;;
7517;SDS011;3800;48.922;9.444;2023-07-28T14:50:52;4.13;;;3.37;;
7517;SDS011;3800;48.922;9.444;2023-07-28T14:55:56;4.73;;;4.23;;
7517;SDS011;3800;48.922;9.444;2023-07-28T14:58:25;6.67;;;3.87;;
7517;SDS011;3800;48.922;9.444;2023-07-28T15:00:54;4.03;;;3.37;;
7517;SDS011;3800;48.922;9.444;2023-07-28T15:03:25;5.57;;;3.63;;
7517;SDS011;3800;48.922;9.444;2023-07-28T15:05:51;4.50;;;3.37;;
7517;SDS011;3800;48.922;9.444;2023-07-28T15:08:19;5.77;;;3.70;;
7517;SDS011;3800;48.922;9.444;2023-07-28T15:10:47;3.77;;;3.20;;
7517;SDS011;3800;48.922;9.444;2023-07-28T15:13:17;6.30;;;3.60;;
7517;SDS011;3800;48.922;9.444;2023-07-28T15:15:45;4.20;;;3.47;;
7517;SDS011;3800;48.922;9.444;2023-07-28T15:18:13;4.77;;;3.57;;
7517;SDS011;3800;48.922;9.444;2023-07-28T15:20:42;4.67;;;3.23;;
7517;SDS011;3800;48.922;9.444;2023-07-28T15:23:10;3.73;;;3.43;;
7517;SDS011;3800;48.922;9.444;2023-07-28T15:25:39;4.60;;;3.53;;
7517;SDS011;3800;48.922;9.444;2023-07-28T15:28:09;5.30;;;3.63;;
7517;SDS011;3800;48.922;9.444;2023-07-28T15:30:37;4.13;;;3.67;;
7517;SDS011;3800;48.922;9.444;2023-07-28T15:33:05;4.60;;;4.00;;
7517;SDS011;3800;48.922;9.444;2023-07-28T15:35:33;4.53;;;3.67;;